sensor_id;sensor_type;location;lat;lon;timestamp;pressure;altitude;pressure_sealevel;temperature;humidity
71384;BME280;67558;52.166;5.004;2023-07-22T00:01:47;101463.97;;;18.80;60.28
71384;BME280;67558;52.166;5.004;2023-07-22T00:04:13;101458.31;;;18.77;60.33
71384;BME280;67558;52.166;5.004;2023-07-22T00:06:38;101467.78;;;18.79;60.41
71384;BME280;67558;52.166;5.004;2023-07-22T00:09:04;101465.16;;;18.74;60.48
71384;BME280;67558;52.166;5.004;2023-07-22T00:11:29;101458.13;;;18.73;60.45
71384;BME280;67558;52.166;5.004;2023-07-22T00:13:54;101455.53;;;18.68;60.55
71384;BME280;67558;52.166;5.004;2023-07-22T00:16:20;101468.00;;;18.69;60.54
71384;BME280;67558;52.166;5.004;2023-07-22T00:18:46;101452.03;;;18.68;60.42
71384;BME280;67558;52.166;5.004;2023-07-22T00:21:12;101447.75;;;18.39;61.55
71384;BME280;67558;52.166;5.004;2023-07-22T00:23:38;101459.47;;;18.34;62.11
71384;BME280;67558;52.166;5.004;2023-07-22T00:26:03;101448.75;;;18.29;62.12
71384;BME280;67558;52.166;5.004;2023-07-22T00:28:29;101443.75;;;18.23;62.15
71384;BME280;67558;52.166;5.004;2023-07-22T00:30:54;101444.44;;;18.28;62.07
71384;BME280;67558;52.166;5.004;2023-07-22T00:33:19;101442.13;;;18.21;62.08
71384;BME280;67558;52.166;5.004;2023-07-22T00:35:48;101448.56;;;18.26;62.08
71384;BME280;67558;52.166;5.004;2023-07-22T00:38:16;101449.34;;;18.26;62.02
71384;BME280;67558;52.166;5.004;2023-07-22T00:40:42;101445.16;;;18.20;62.16
71384;BME280;67558;52.166;5.004;2023-07-22T00:43:09;101450.47;;;18.25;62.16
71384;BME280;67558;52.166;5.004;2023-07-22T00:45:34;101444.56;;;18.23;62.29
71384;BME280;67558;52.166;5.004;2023-07-22T00:47:59;101440.84;;;18.19;62.42
71384;BME280;67558;52.166;5.004;2023-07-22T00:50:25;101447.53;;;18.21;62.38
71384;BME280;67558;52.166;5.004;2023-07-22T00:52:52;101449.75;;;18.19;62.47
71384;BME280;67558;52.166;5.004;2023-07-22T00:55:17;101440.34;;;18.17;62.23
71384;BME280;67558;52.166;5.004;2023-07-22T00:57:43;101429.69;;;18.07;62.50
71384;BME280;67558;52.166;5.004;2023-07-22T01:00:09;101430.41;;;18.12;62.23
71384;BME280;67558;52.166;5.004;2023-07-22T01:02:40;101435.03;;;18.12;62.69
71384;BME280;67558;52.166;5.004;2023-07-22T01:05:06;101428.31;;;18.09;62.66
71384;BME280;67558;52.166;5.004;2023-07-22T01:07:31;101428.31;;;18.09;62.43
71384;BME280;67558;52.166;5.004;2023-07-22T01:09:57;101429.69;;;18.07;62.92
71384;BME280;67558;52.166;5.004;2023-07-22T01:12:25;101419.97;;;18.06;62.83
71384;BME280;67558;52.166;5.004;2023-07-22T01:14:50;101425.59;;;18.09;62.52
71384;BME280;67558;52.166;5.004;2023-07-22T01:17:16;101421.41;;;18.03;62.55
71384;BME280;67558;52.166;5.004;2023-07-22T01:19:41;101426.19;;;18.06;62.61
71384;BME280;67558;52.166;5.004;2023-07-22T01:22:08;101428.41;;;18.04;62.63
71384;BME280;67558;52.166;5.004;2023-07-22T01:24:34;101427.91;;;18.02;62.79
71384;BME280;67558;52.166;5.004;2023-07-22T01:27:00;101422.88;;;17.95;62.72
71384;BME280;67558;52.166;5.004;2023-07-22T01:29:26;101421.28;;;17.94;62.65
71384;BME280;67558;52.166;5.004;2023-07-22T01:31:53;101402.25;;;17.86;62.74
71384;BME280;67558;52.166;5.004;2023-07-22T01:34:19;101411.66;;;17.88;62.90
71384;BME280;67558;52.166;5.004;2023-07-22T01:36:45;101406.31;;;17.83;62.78
71384;BME280;67558;52.166;5.004;2023-07-22T01:39:12;101414.94;;;17.85;62.71
71384;BME280;67558;52.166;5.004;2023-07-22T01:41:38;101412.03;;;17.81;62.63
71384;BME280;67558;52.166;5.004;2023-07-22T01:44:03;101410.22;;;17.77;63.00
71384;BME280;67558;52.166;5.004;2023-07-22T01:46:28;101408.59;;;17.76;62.98
71384;BME280;67558;52.166;5.004;2023-07-22T01:48:55;101407.53;;;17.77;62.68
71384;BME280;67558;52.166;5.004;2023-07-22T01:51:20;101412.44;;;17.75;63.01
71384;BME280;67558;52.166;5.004;2023-07-22T01:53:46;101407.53;;;17.77;62.81
71384;BME280;67558;52.166;5.004;2023-07-22T01:56:11;101409.09;;;17.78;62.71
71384;BME280;67558;52.166;5.004;2023-07-22T01:58:36;101404.00;;;17.76;63.38
71384;BME280;67558;52.166;5.004;2023-07-22T02:01:02;101389.78;;;17.71;63.18
71384;BME280;67558;52.166;5.004;2023-07-22T02:03:27;101394.56;;;17.74;63.42
71384;BME280;67558;52.166;5.004;2023-07-22T02:05:52;101406.13;;;17.79;63.47
71384;BME280;67558;52.166;5.004;2023-07-22T02:08:18;101398.78;;;17.80;63.34
71384;BME280;67558;52.166;5.004;2023-07-22T02:10:43;101395.78;;;17.81;63.52
71384;BME280;67558;52.166;5.004;2023-07-22T02:13:08;101400.13;;;17.83;63.24
71384;BME280;67558;52.166;5.004;2023-07-22T02:15:35;101390.47;;;17.76;63.33
71384;BME280;67558;52.166;5.004;2023-07-22T02:18:00;101399.41;;;18.05;62.64
71384;BME280;67558;52.166;5.004;2023-07-22T02:20:26;101394.59;;;18.15;62.07
71384;BME280;67558;52.166;5.004;2023-07-22T02:22:54;101394.81;;;18.19;61.88
71384;BME280;67558;52.166;5.004;2023-07-22T02:25:19;101391.59;;;18.17;62.10
71384;BME280;67558;52.166;5.004;2023-07-22T02:27:45;101378.56;;;17.91;62.58
71384;BME280;67558;52.166;5.004;2023-07-22T02:30:11;101390.91;;;17.84;62.99
71384;BME280;67558;52.166;5.004;2023-07-22T02:32:39;101375.63;;;17.74;63.38
71384;BME280;67558;52.166;5.004;2023-07-22T02:35:06;101377.03;;;17.71;63.64
71384;BME280;67558;52.166;5.004;2023-07-22T02:37:32;101380.03;;;17.70;63.66
71384;BME280;67558;52.166;5.004;2023-07-22T02:39:58;101375.22;;;17.67;63.67
71384;BME280;67558;52.166;5.004;2023-07-22T02:42:23;101371.63;;;17.71;63.34
71384;BME280;67558;52.166;5.004;2023-07-22T02:44:48;101375.91;;;17.72;63.64
71384;BME280;67558;52.166;5.004;2023-07-22T02:47:14;101379.25;;;17.69;63.71
71384;BME280;67558;52.166;5.004;2023-07-22T02:49:39;101377.31;;;17.70;63.58
71384;BME280;67558;52.166;5.004;2023-07-22T02:52:05;101374.13;;;17.68;63.55
71384;BME280;67558;52.166;5.004;2023-07-22T02:54:32;101376.81;;;17.68;63.72
71384;BME280;67558;52.166;5.004;2023-07-22T02:56:57;101376.44;;;17.60;63.73
71384;BME280;67558;52.166;5.004;2023-07-22T02:59:23;101367.50;;;17.60;63.56
71384;BME280;67558;52.166;5.004;2023-07-22T03:01:49;101374.91;;;17.54;63.86
71384;BME280;67558;52.166;5.004;2023-07-22T03:04:15;101376.22;;;17.57;63.87
71384;BME280;67558;52.166;5.004;2023-07-22T03:06:40;101369.00;;;17.52;63.72
71384;BME280;67558;52.166;5.004;2023-07-22T03:09:07;101374.91;;;17.54;64.12
71384;BME280;67558;52.166;5.004;2023-07-22T03:11:32;101374.91;;;17.54;63.88
71384;BME280;67558;52.166;5.004;2023-07-22T03:13:59;101364.38;;;17.53;63.83
71384;BME280;67558;52.166;5.004;2023-07-22T03:16:25;101374.13;;;17.54;64.00
71384;BME280;67558;52.166;5.004;2023-07-22T03:18:50;101383.53;;;17.56;64.01
71384;BME280;67558;52.166;5.004;2023-07-22T03:21:15;101385.66;;;17.59;63.92
71384;BME280;67558;52.166;5.004;2023-07-22T03:23:41;101389.41;;;17.91;62.95
71384;BME280;67558;52.166;5.004;2023-07-22T03:26:06;101392.81;;;17.97;62.80
71384;BME280;67558;52.166;5.004;2023-07-22T03:28:32;101390.31;;;18.00;62.44
71384;BME280;67558;52.166;5.004;2023-07-22T03:30:57;101379.00;;;17.98;62.26
71384;BME280;67558;52.166;5.004;2023-07-22T03:33:22;101381.59;;;18.04;62.48
71384;BME280;67558;52.166;5.004;2023-07-22T03:35:47;101386.00;;;17.86;62.56
71384;BME280;67558;52.166;5.004;2023-07-22T03:38:13;101388.38;;;17.73;63.21
71384;BME280;67558;52.166;5.004;2023-07-22T03:40:38;101380.19;;;17.92;62.48
71384;BME280;67558;52.166;5.004;2023-07-22T03:43:04;101375.56;;;17.79;62.80
71384;BME280;67558;52.166;5.004;2023-07-22T03:45:30;101355.66;;;17.42;63.20
71384;BME280;67558;52.166;5.004;2023-07-22T03:47:57;101392.88;;;17.64;63.42
71384;BME280;67558;52.166;5.004;2023-07-22T03:50:23;101382.50;;;17.52;63.56
71384;BME280;67558;52.166;5.004;2023-07-22T03:52:49;101392.66;;;17.60;63.59
71384;BME280;67558;52.166;5.004;2023-07-22T03:55:14;101394.84;;;17.58;63.40
71384;BME280;67558;52.166;5.004;2023-07-22T03:57:39;101388.44;;;17.54;64.04
71384;BME280;67558;52.166;5.004;2023-07-22T04:00:06;101388.66;;;17.58;63.59
71384;BME280;67558;52.166;5.004;2023-07-22T04:02:34;101388.34;;;17.59;63.62
71384;BME280;67558;52.166;5.004;2023-07-22T04:05:00;101383.25;;;17.58;63.83
71384;BME280;67558;52.166;5.004;2023-07-22T04:07:25;101380.09;;;17.51;63.60
71384;BME280;67558;52.166;5.004;2023-07-22T04:09:50;101395.34;;;17.60;63.88
71384;BME280;67558;52.166;5.004;2023-07-22T04:12:16;101398.56;;;17.63;63.90
71384;BME280;67558;52.166;5.004;2023-07-22T04:14:41;101397.47;;;17.64;64.01
71384;BME280;67558;52.166;5.004;2023-07-22T04:17:07;101395.25;;;17.66;63.62
71384;BME280;67558;52.166;5.004;2023-07-22T04:19:33;101392.75;;;17.69;63.69
71384;BME280;67558;52.166;5.004;2023-07-22T04:21:58;101381.16;;;17.69;63.54
71384;BME280;67558;52.166;5.004;2023-07-22T04:24:24;101393.88;;;17.68;63.58
71384;BME280;67558;52.166;5.004;2023-07-22T04:26:50;101389.78;;;17.71;63.54
71384;BME280;67558;52.166;5.004;2023-07-22T04:29:16;101386.06;;;17.67;63.56
71384;BME280;67558;52.166;5.004;2023-07-22T04:31:41;101392.97;;;17.73;63.67
71384;BME280;67558;52.166;5.004;2023-07-22T04:34:06;101391.19;;;17.68;64.07
71384;BME280;67558;52.166;5.004;2023-07-22T04:36:32;101379.53;;;17.68;64.09
71384;BME280;67558;52.166;5.004;2023-07-22T04:38:58;101394.78;;;17.77;63.71
71384;BME280;67558;52.166;5.004;2023-07-22T04:41:23;101395.00;;;17.81;64.24
71384;BME280;67558;52.166;5.004;2023-07-22T04:43:49;101385.78;;;17.82;63.83
71384;BME280;67558;52.166;5.004;2023-07-22T04:46:15;101387.09;;;17.85;64.08
71384;BME280;67558;52.166;5.004;2023-07-22T04:48:41;101379.75;;;17.85;63.97
71384;BME280;67558;52.166;5.004;2023-07-22T04:51:07;101385.59;;;17.92;63.94
71384;BME280;67558;52.166;5.004;2023-07-22T04:53:32;101388.19;;;17.97;63.99
71384;BME280;67558;52.166;5.004;2023-07-22T04:55:58;101382.50;;;17.99;64.33
71384;BME280;67558;52.166;5.004;2023-07-22T04:58:23;101381.19;;;17.96;64.00
71384;BME280;67558;52.166;5.004;2023-07-22T05:00:49;101379.50;;;18.00;63.98
71384;BME280;67558;52.166;5.004;2023-07-22T05:03:14;101379.34;;;18.33;63.08
71384;BME280;67558;52.166;5.004;2023-07-22T05:05:41;101381.53;;;18.45;63.17
71384;BME280;67558;52.166;5.004;2023-07-22T05:08:07;101373.59;;;18.49;62.73
71384;BME280;67558;52.166;5.004;2023-07-22T05:10:33;101378.88;;;18.54;62.87
71384;BME280;67558;52.166;5.004;2023-07-22T05:12:59;101380.22;;;18.56;62.69
71384;BME280;67558;52.166;5.004;2023-07-22T05:15:24;101374.47;;;18.58;63.17
71384;BME280;67558;52.166;5.004;2023-07-22T05:17:50;101376.69;;;18.56;62.94
71384;BME280;67558;52.166;5.004;2023-07-22T05:20:16;101377.69;;;18.60;62.79
71384;BME280;67558;52.166;5.004;2023-07-22T05:22:42;101370.53;;;18.64;62.85
71384;BME280;67558;52.166;5.004;2023-07-22T05:25:08;101384.78;;;18.70;62.87
71384;BME280;67558;52.166;5.004;2023-07-22T05:27:34;101382.25;;;18.73;63.04
71384;BME280;67558;52.166;5.004;2023-07-22T05:30:00;101373.44;;;18.68;63.05
71384;BME280;67558;52.166;5.004;2023-07-22T05:32:28;101374.44;;;18.72;62.87
71384;BME280;67558;52.166;5.004;2023-07-22T05:34:53;101369.19;;;18.75;62.99
71384;BME280;67558;52.166;5.004;2023-07-22T05:37:18;101376.94;;;18.82;63.10
71384;BME280;67558;52.166;5.004;2023-07-22T05:39:44;101383.66;;;18.85;63.03
71384;BME280;67558;52.166;5.004;2023-07-22T05:42:09;101387.38;;;18.89;63.24
71384;BME280;67558;52.166;5.004;2023-07-22T05:44:34;101386.75;;;18.92;63.21
71384;BME280;67558;52.166;5.004;2023-07-22T05:47:00;101386.13;;;18.95;63.20
71384;BME280;67558;52.166;5.004;2023-07-22T05:49:25;101382.50;;;18.99;63.24
71384;BME280;67558;52.166;5.004;2023-07-22T05:51:50;101378.38;;;19.02;63.35
71384;BME280;67558;52.166;5.004;2023-07-22T05:54:16;101376.16;;;19.04;63.23
71384;BME280;67558;52.166;5.004;2023-07-22T05:56:42;101383.06;;;19.10;63.28
71384;BME280;67558;52.166;5.004;2023-07-22T05:59:07;101373.16;;;19.14;63.24
71384;BME280;67558;52.166;5.004;2023-07-22T06:01:32;101374.78;;;19.15;63.39
71384;BME280;67558;52.166;5.004;2023-07-22T06:03:58;101378.47;;;19.19;63.43
71384;BME280;67558;52.166;5.004;2023-07-22T06:06:23;101386.66;;;19.28;63.19
71384;BME280;67558;52.166;5.004;2023-07-22T06:08:48;101375.53;;;19.30;63.56
71384;BME280;67558;52.166;5.004;2023-07-22T06:11:14;101380.31;;;19.33;63.46
71384;BME280;67558;52.166;5.004;2023-07-22T06:13:39;101382.56;;;19.39;63.30
71384;BME280;67558;52.166;5.004;2023-07-22T06:16:04;101383.06;;;19.41;63.36
71384;BME280;67558;52.166;5.004;2023-07-22T06:18:30;101378.31;;;19.47;63.32
71384;BME280;67558;52.166;5.004;2023-07-22T06:20:55;101378.19;;;19.52;63.54
71384;BME280;67558;52.166;5.004;2023-07-22T06:23:20;101368.31;;;19.56;63.36
71384;BME280;67558;52.166;5.004;2023-07-22T06:25:46;101378.22;;;19.61;63.39
71384;BME280;67558;52.166;5.004;2023-07-22T06:28:11;101380.00;;;19.65;63.42
71384;BME280;67558;52.166;5.004;2023-07-22T06:30:36;101379.06;;;19.70;63.31
71384;BME280;67558;52.166;5.004;2023-07-22T06:33:02;101365.38;;;19.75;63.20
71384;BME280;67558;52.166;5.004;2023-07-22T06:35:27;101347.81;;;19.73;63.22
71384;BME280;67558;52.166;5.004;2023-07-22T06:37:52;101352.63;;;19.84;63.48
71384;BME280;67558;52.166;5.004;2023-07-22T06:40:18;101363.81;;;19.92;63.29
71384;BME280;67558;52.166;5.004;2023-07-22T06:42:43;101362.91;;;19.96;63.13
71384;BME280;67558;52.166;5.004;2023-07-22T06:45:09;101371.88;;;20.05;63.18
71384;BME280;67558;52.166;5.004;2023-07-22T06:47:35;101356.53;;;20.10;63.32
71384;BME280;67558;52.166;5.004;2023-07-22T06:50:02;101363.75;;;20.14;63.13
71384;BME280;67558;52.166;5.004;2023-07-22T06:52:30;101364.72;;;20.18;63.09
71384;BME280;67558;52.166;5.004;2023-07-22T06:54:55;101352.41;;;20.21;63.14
71384;BME280;67558;52.166;5.004;2023-07-22T06:57:20;101361.84;;;20.23;63.13
71384;BME280;67558;52.166;5.004;2023-07-22T06:59:46;101351.94;;;20.28;62.90
71384;BME280;67558;52.166;5.004;2023-07-22T07:02:12;101346.19;;;20.29;62.94
71384;BME280;67558;52.166;5.004;2023-07-22T07:04:37;101351.47;;;20.34;63.09
71384;BME280;67558;52.166;5.004;2023-07-22T07:07:02;101346.38;;;20.33;63.10
71384;BME280;67558;52.166;5.004;2023-07-22T07:09:28;101351.63;;;20.38;62.82
71384;BME280;67558;52.166;5.004;2023-07-22T07:11:53;101353.38;;;20.42;62.93
71384;BME280;67558;52.166;5.004;2023-07-22T07:14:22;101363.94;;;20.44;62.67
71384;BME280;67558;52.166;5.004;2023-07-22T07:16:48;101358.50;;;20.44;62.58
71384;BME280;67558;52.166;5.004;2023-07-22T07:19:13;101362.81;;;20.45;62.79
71384;BME280;67558;52.166;5.004;2023-07-22T07:21:38;101363.59;;;20.45;62.63
71384;BME280;67558;52.166;5.004;2023-07-22T07:24:04;101355.94;;;20.48;62.72
71384;BME280;67558;52.166;5.004;2023-07-22T07:26:29;101363.94;;;20.53;62.33
71384;BME280;67558;52.166;5.004;2023-07-22T07:28:55;101365.53;;;20.54;62.64
71384;BME280;67558;52.166;5.004;2023-07-22T07:31:20;101363.50;;;20.59;62.15
71384;BME280;67558;52.166;5.004;2023-07-22T07:33:45;101356.63;;;20.62;62.29
71384;BME280;67558;52.166;5.004;2023-07-22T07:36:11;101349.13;;;20.59;62.46
71384;BME280;67558;52.166;5.004;2023-07-22T07:38:36;101352.94;;;20.66;62.36
71384;BME280;67558;52.166;5.004;2023-07-22T07:41:03;101358.72;;;20.74;62.41
71384;BME280;67558;52.166;5.004;2023-07-22T07:43:29;101355.03;;;20.78;62.33
71384;BME280;67558;52.166;5.004;2023-07-22T07:48:38;101351.03;;;20.84;62.06
71384;BME280;67558;52.166;5.004;2023-07-22T07:51:04;101354.84;;;20.92;62.34
71384;BME280;67558;52.166;5.004;2023-07-22T07:53:29;101355.78;;;20.96;62.16
71384;BME280;67558;52.166;5.004;2023-07-22T07:55:54;101357.06;;;20.99;61.93
71384;BME280;67558;52.166;5.004;2023-07-22T07:58:20;101350.66;;;21.03;61.59
71384;BME280;67558;52.166;5.004;2023-07-22T08:00:45;101358.78;;;21.12;61.74
71384;BME280;67558;52.166;5.004;2023-07-22T08:03:11;101353.19;;;21.17;62.15
71384;BME280;67558;52.166;5.004;2023-07-22T08:05:36;101339.75;;;21.12;61.85
71384;BME280;67558;52.166;5.004;2023-07-22T08:08:01;101357.00;;;21.25;61.76
71384;BME280;67558;52.166;5.004;2023-07-22T08:10:26;101350.63;;;21.30;61.35
71384;BME280;67558;52.166;5.004;2023-07-22T08:12:52;101352.00;;;21.36;61.24
71384;BME280;67558;52.166;5.004;2023-07-22T08:15:17;101350.75;;;21.42;61.34
71384;BME280;67558;52.166;5.004;2023-07-22T08:17:43;101345.63;;;21.49;61.46
71384;BME280;67558;52.166;5.004;2023-07-22T08:20:08;101345.91;;;21.56;61.28
71384;BME280;67558;52.166;5.004;2023-07-22T08:22:35;101340.25;;;21.61;60.81
71384;BME280;67558;52.166;5.004;2023-07-22T08:25:00;101341.22;;;21.65;60.78
71384;BME280;67558;52.166;5.004;2023-07-22T08:27:26;101349.53;;;21.69;60.38
71384;BME280;67558;52.166;5.004;2023-07-22T08:29:51;101348.84;;;21.72;60.62
71384;BME280;67558;52.166;5.004;2023-07-22T08:32:16;101349.00;;;21.76;60.59
71384;BME280;67558;52.166;5.004;2023-07-22T08:34:42;101348.81;;;21.81;60.42
71384;BME280;67558;52.166;5.004;2023-07-22T08:37:07;101329.47;;;21.74;60.01
71384;BME280;67558;52.166;5.004;2023-07-22T08:39:33;101348.81;;;21.81;59.92
71384;BME280;67558;52.166;5.004;2023-07-22T08:42:03;101341.78;;;21.80;59.45
71384;BME280;67558;52.166;5.004;2023-07-22T08:44:31;101344.31;;;21.85;59.36
71384;BME280;67558;52.166;5.004;2023-07-22T08:46:59;101342.53;;;21.89;59.09
71384;BME280;67558;52.166;5.004;2023-07-22T08:49:26;101338.69;;;21.90;58.48
71384;BME280;67558;52.166;5.004;2023-07-22T08:51:54;101341.88;;;21.92;59.00
71384;BME280;67558;52.166;5.004;2023-07-22T08:54:21;101340.28;;;21.91;58.24
71384;BME280;67558;52.166;5.004;2023-07-22T08:56:47;101335.50;;;21.88;58.53
71384;BME280;67558;52.166;5.004;2023-07-22T08:59:13;101340.28;;;21.91;58.36
71384;BME280;67558;52.166;5.004;2023-07-22T09:01:39;101339.34;;;21.87;57.85
71384;BME280;67558;52.166;5.004;2023-07-22T09:04:05;101345.09;;;21.94;58.16
71384;BME280;67558;52.166;5.004;2023-07-22T09:06:31;101339.63;;;21.94;58.01
71384;BME280;67558;52.166;5.004;2023-07-22T09:08:58;101332.56;;;21.93;57.46
71384;BME280;67558;52.166;5.004;2023-07-22T09:11:25;101339.63;;;21.94;57.38
71384;BME280;67558;52.166;5.004;2023-07-22T09:13:51;101330.31;;;21.95;57.27
71384;BME280;67558;52.166;5.004;2023-07-22T09:16:17;101335.25;;;22.02;56.80
71384;BME280;67558;52.166;5.004;2023-07-22T09:18:43;101344.56;;;22.01;56.92
71384;BME280;67558;52.166;5.004;2023-07-22T09:21:09;101337.50;;;22.00;56.84
71384;BME280;67558;52.166;5.004;2023-07-22T09:23:35;101328.06;;;21.97;56.42
71384;BME280;67558;52.166;5.004;2023-07-22T09:26:11;101342.38;;;21.94;56.31
71384;BME280;67558;52.166;5.004;2023-07-22T09:28:56;101337.88;;;21.89;56.36
71384;BME280;67558;52.166;5.004;2023-07-22T09:31:23;101338.53;;;21.86;56.73
71384;BME280;67558;52.166;5.004;2023-07-22T09:33:49;101336.63;;;21.87;56.51
71384;BME280;67558;52.166;5.004;2023-07-22T09:36:14;101328.91;;;21.89;56.30
71384;BME280;67558;52.166;5.004;2023-07-22T09:38:39;101337.09;;;21.89;56.08
71384;BME280;67558;52.166;5.004;2023-07-22T09:41:05;101342.22;;;21.91;55.94
71384;BME280;67558;52.166;5.004;2023-07-22T09:43:31;101329.38;;;21.91;55.82
71384;BME280;67558;52.166;5.004;2023-07-22T09:46:06;101330.53;;;21.90;55.85
71384;BME280;67558;52.166;5.004;2023-07-22T09:48:42;101330.66;;;21.94;55.29
71384;BME280;67558;52.166;5.004;2023-07-22T09:51:13;101326.50;;;21.96;55.29
71384;BME280;67558;52.166;5.004;2023-07-22T09:53:44;101328.75;;;21.94;54.93
71384;BME280;67558;52.166;5.004;2023-07-22T09:56:09;101321.47;;;21.98;55.56
71384;BME280;67558;52.166;5.004;2023-07-22T09:58:35;101328.22;;;22.01;55.26
71384;BME280;67558;52.166;5.004;2023-07-22T10:01:01;101318.91;;;22.02;54.96
71384;BME280;67558;52.166;5.004;2023-07-22T10:03:29;101320.78;;;22.10;55.42
71384;BME280;67558;52.166;5.004;2023-07-22T10:06:00;101315.13;;;22.15;55.52
71384;BME280;67558;52.166;5.004;2023-07-22T10:08:26;101310.28;;;22.21;55.22
71384;BME280;67558;52.166;5.004;2023-07-22T10:10:57;101318.47;;;22.21;54.49
71384;BME280;67558;52.166;5.004;2023-07-22T10:13:24;101310.16;;;22.17;54.71
71384;BME280;67558;52.166;5.004;2023-07-22T10:15:51;101325.81;;;22.29;53.87
71384;BME280;67558;52.166;5.004;2023-07-22T10:18:17;101319.03;;;22.35;53.21
71384;BME280;67558;52.166;5.004;2023-07-22T10:20:45;101323.81;;;22.38;52.60
71384;BME280;67558;52.166;5.004;2023-07-22T10:23:12;101316.63;;;22.34;52.56
71384;BME280;67558;52.166;5.004;2023-07-22T10:25:39;101326.38;;;22.35;52.88
71384;BME280;67558;52.166;5.004;2023-07-22T10:28:06;101321.47;;;22.28;52.65
71384;BME280;67558;52.166;5.004;2023-07-22T10:30:32;101337.97;;;22.32;52.91
71384;BME280;67558;52.166;5.004;2023-07-22T10:32:58;101333.19;;;22.28;52.34
71384;BME280;67558;52.166;5.004;2023-07-22T10:37:54;101336.38;;;22.01;53.53
71384;BME280;67558;52.166;5.004;2023-07-22T10:40:26;101331.78;;;21.93;53.28
71384;BME280;67558;52.166;5.004;2023-07-22T10:43:00;101359.63;;;21.98;53.45
71384;BME280;67558;52.166;5.004;2023-07-22T10:45:40;101367.03;;;21.89;53.36
71384;BME280;67558;52.166;5.004;2023-07-22T10:48:13;101364.19;;;21.85;54.46
71384;BME280;67558;52.166;5.004;2023-07-22T10:50:46;101368.53;;;21.78;54.92
71384;BME280;67558;52.166;5.004;2023-07-22T10:53:32;101373.41;;;21.63;56.23
71384;BME280;67558;52.166;5.004;2023-07-22T11:04:22;101360.38;;;21.31;57.71
71384;BME280;67558;52.166;5.004;2023-07-22T11:06:56;101360.22;;;21.27;57.74
71384;BME280;67558;52.166;5.004;2023-07-22T11:15:01;101355.75;;;21.14;58.27
71384;BME280;67558;52.166;5.004;2023-07-22T11:17:28;101351.94;;;21.15;58.21
71384;BME280;67558;52.166;5.004;2023-07-22T11:19:58;101355.94;;;21.17;58.50
71384;BME280;67558;52.166;5.004;2023-07-22T11:22:24;101348.41;;;21.14;58.22
71384;BME280;67558;52.166;5.004;2023-07-22T11:24:49;101344.22;;;21.25;58.43
71384;BME280;67558;52.166;5.004;2023-07-22T11:27:15;101342.94;;;21.32;58.94
71384;BME280;67558;52.166;5.004;2023-07-22T11:29:41;101339.88;;;21.42;58.63
71384;BME280;67558;52.166;5.004;2023-07-22T11:32:06;101326.06;;;21.56;58.82
71384;BME280;67558;52.166;5.004;2023-07-22T11:34:40;101314.66;;;21.62;58.64
71384;BME280;67558;52.166;5.004;2023-07-22T11:37:05;101316.19;;;21.72;58.94
71384;BME280;67558;52.166;5.004;2023-07-22T11:39:31;101315.34;;;21.80;58.35
71384;BME280;67558;52.166;5.004;2023-07-22T11:41:59;101313.56;;;21.84;57.77
71384;BME280;67558;52.166;5.004;2023-07-22T11:44:27;101321.69;;;21.93;57.54
71384;BME280;67558;52.166;5.004;2023-07-22T11:46:58;101316.38;;;21.97;57.75
71384;BME280;67558;52.166;5.004;2023-07-22T11:49:31;101308.34;;;22.00;57.29
71384;BME280;67558;52.166;5.004;2023-07-22T11:54:34;101317.13;;;22.06;57.29
71384;BME280;67558;52.166;5.004;2023-07-22T11:59:48;101290.59;;;22.15;56.13
71384;BME280;67558;52.166;5.004;2023-07-22T12:02:21;101311.78;;;22.39;56.26
71384;BME280;67558;52.166;5.004;2023-07-22T12:05:03;101308.53;;;22.46;56.03
71384;BME280;67558;52.166;5.004;2023-07-22T12:07:36;101307.19;;;22.31;55.98
71384;BME280;67558;52.166;5.004;2023-07-22T12:10:04;101321.00;;;22.26;56.30
71384;BME280;67558;52.166;5.004;2023-07-22T12:12:36;101312.84;;;22.26;56.11
71384;BME280;67558;52.166;5.004;2023-07-22T12:15:13;101316.69;;;22.25;55.79
71384;BME280;67558;52.166;5.004;2023-07-22T12:18:03;101313.97;;;22.25;55.78
71384;BME280;67558;52.166;5.004;2023-07-22T12:20:31;101300.34;;;22.25;55.12
71384;BME280;67558;52.166;5.004;2023-07-22T12:22:57;101303.53;;;22.27;54.37
71384;BME280;67558;52.166;5.004;2023-07-22T12:25:23;101310.56;;;22.28;54.29
71384;BME280;67558;52.166;5.004;2023-07-22T12:27:48;101302.28;;;22.24;53.90
71384;BME280;67558;52.166;5.004;2023-07-22T12:30:15;101301.47;;;22.24;54.03
71384;BME280;67558;52.166;5.004;2023-07-22T12:32:41;101296.47;;;22.26;53.42
71384;BME280;67558;52.166;5.004;2023-07-22T12:35:07;101299.81;;;22.32;53.78
71384;BME280;67558;52.166;5.004;2023-07-22T12:37:33;101293.09;;;22.29;53.42
71384;BME280;67558;52.166;5.004;2023-07-22T12:39:58;101294.84;;;22.34;53.18
71384;BME280;67558;52.166;5.004;2023-07-22T12:42:23;101316.63;;;22.34;52.84
71384;BME280;67558;52.166;5.004;2023-07-22T12:44:49;101311.84;;;22.31;52.16
71384;BME280;67558;52.166;5.004;2023-07-22T12:47:14;101307.84;;;22.28;52.09
71384;BME280;67558;52.166;5.004;2023-07-22T12:49:39;101320.03;;;22.31;51.72
71384;BME280;67558;52.166;5.004;2023-07-22T12:52:05;101319.69;;;22.32;52.02
71384;BME280;67558;52.166;5.004;2023-07-22T12:54:37;101328.31;;;22.34;51.53
71384;BME280;67558;52.166;5.004;2023-07-22T12:57:02;101325.91;;;22.33;51.19
71384;BME280;67558;52.166;5.004;2023-07-22T12:59:28;101319.22;;;22.30;51.51
71384;BME280;67558;52.166;5.004;2023-07-22T13:01:53;101320.81;;;22.31;50.69
71384;BME280;67558;52.166;5.004;2023-07-22T13:04:19;101328.84;;;22.27;50.83
71384;BME280;67558;52.166;5.004;2023-07-22T13:06:44;101318.78;;;22.19;50.53
71384;BME280;67558;52.166;5.004;2023-07-22T13:09:09;101322.97;;;22.17;50.71
71384;BME280;67558;52.166;5.004;2023-07-22T13:11:35;101330.69;;;22.15;50.56